Beltran, Argentina
Current Conditions -  °F | °C
As of 10:00 PM on Friday 31 Oct 2014 (Local Time) from SANT Reporting Station
Broken Clouds Broken Clouds  
Wind Chill: 73°   Ceiling: 3000
Heat Index: 73°   Visibility: 4mi
Dew Point: 70°   Wind: 9mph
Humidity: 88%   Direction: 50°NE
Pressure: 29.88"   Gusts: NA
Location:  28.03°S, 64.5°W
Report Text: SANT 010100Z 05008KT 6000 SCT015 BKN03023/21 Q1012
Loading
Personal Weather Stations






























Interactive Weather Map
Tropical Storm Tracking
New forecast layout! Learn more

10-Day Weather Forecast

Advertisements
Track Severe Weather on mobile